Time;durP1;ratioP1;P1;durP2;ratioP2;P2;SDS_P1;SDS_P2;PMS_P1;PMS_P2;Temp;Humidity;BMP_temperature;BMP_pressure;BME280_temperature;BME280_humidity;BME280_pressure;Samples;Min_cycle;Max_cycle;Signal;HPM_P1;HPM_P2
2022/12/19 00:00:04;;;;;;;35.60;20.10;;;;;;;-0.72;100.00;101355.81;687133;28;997;-68
2022/12/19 00:00:32;;;;;;;34.65;19.42;;;;;;;-0.76;100.00;101348.78;685369;28;765;-64
2022/12/19 00:01:08;;;;;;;33.27;18.37;;;;;;;-0.75;100.00;101353.09;686586;28;871;-66
2022/12/19 00:01:31;;;;;;;32.44;17.96;;;;;;;-0.67;100.00;101353.50;684610;28;1191;-66
2022/12/19 00:01:51;;;;;;;30.15;16.83;;;;;;;-0.63;100.00;101350.28;686076;28;4306;-66
2022/12/19 00:02:12;;;;;;;34.90;19.23;;;;;;;-0.59;100.00;101353.91;685308;28;1193;-66
2022/12/19 00:02:32;;;;;;;35.42;17.83;;;;;;;-0.62;100.00;101354.63;688182;28;896;-66
2022/12/19 00:02:52;;;;;;;35.97;19.27;;;;;;;-0.64;100.00;101358.78;689418;28;1215;-67
2022/12/19 00:03:13;;;;;;;33.85;19.67;;;;;;;-0.68;100.00;101349.16;688094;28;1899;-67
2022/12/19 00:03:34;;;;;;;34.17;19.50;;;;;;;-0.62;100.00;101351.16;687717;28;832;-67
2022/12/19 00:03:59;;;;;;;34.45;19.88;;;;;;;-0.64;100.00;101350.19;688608;28;959;-67
2022/12/19 00:04:20;;;;;;;35.00;20.48;;;;;;;-0.70;100.00;101354.22;685459;28;912;-67
2022/12/19 00:04:40;;;;;;;33.23;19.97;;;;;;;-0.61;100.00;101352.91;685464;28;1011;-67
2022/12/19 00:05:00;;;;;;;34.22;19.45;;;;;;;-0.61;100.00;101358.06;685027;28;4305;-67
2022/12/19 00:05:21;;;;;;;34.53;18.93;;;;;;;-0.65;100.00;101356.13;686935;28;817;-67
2022/12/19 00:05:42;;;;;;;34.15;18.40;;;;;;;-0.69;100.00;101352.53;686964;28;1505;-68
2022/12/19 00:06:03;;;;;;;34.83;19.17;;;;;;;-0.69;100.00;101355.97;683793;28;2289;-67
2022/12/19 00:06:24;;;;;;;33.50;19.25;;;;;;;-0.67;100.00;101352.63;681717;28;1408;-67
2022/12/19 00:06:45;;;;;;;32.85;19.45;;;;;;;-0.69;100.00;101355.97;678606;29;1397;-67
2022/12/19 00:07:05;;;;;;;34.13;19.83;;;;;;;-0.67;100.00;101353.50;677836;29;1464;-68
2022/12/19 00:07:26;;;;;;;34.17;20.47;;;;;;;-0.68;100.00;101349.16;674548;29;1442;-67
2022/12/19 00:07:50;;;;;;;33.63;20.15;;;;;;;-0.65;100.00;101353.56;674811;29;4445;-67
2022/12/19 00:08:15;;;;;;;33.75;19.55;;;;;;;-0.66;100.00;101350.13;679301;29;1335;-67
2022/12/19 00:08:37;;;;;;;32.35;18.40;;;;;;;-0.63;100.00;101349.41;681827;28;882;-67
2022/12/19 00:08:59;;;;;;;30.73;17.85;;;;;;;-0.56;100.00;101336.06;684581;28;1020;-66
2022/12/19 00:09:19;;;;;;;32.45;18.05;;;;;;;-0.55;100.00;101343.84;685859;28;1471;-68
2022/12/19 00:09:40;;;;;;;32.80;18.63;;;;;;;-0.55;100.00;101342.97;686221;28;1276;-68
2022/12/19 00:10:01;;;;;;;33.30;19.02;;;;;;;-0.61;100.00;101340.97;686646;28;1053;-68
2022/12/19 00:10:22;;;;;;;30.38;16.38;;;;;;;-0.56;100.00;101339.50;687462;28;859;-66
2022/12/19 00:10:43;;;;;;;32.10;17.60;;;;;;;-0.52;100.00;101338.00;685168;28;3491;-67
2022/12/19 00:11:03;;;;;;;34.77;18.63;;;;;;;-0.51;100.00;101339.75;680386;28;4534;-67
2022/12/19 00:11:25;;;;;;;34.43;18.60;;;;;;;-0.56;100.00;101342.06;681274;29;1391;-67
2022/12/19 00:11:47;;;;;;;35.67;19.00;;;;;;;-0.54;100.00;101329.31;681909;29;1312;-66
2022/12/19 00:12:08;;;;;;;34.38;18.05;;;;;;;-0.52;100.00;101338.00;682274;28;1085;-66
2022/12/19 00:12:28;;;;;;;33.95;18.60;;;;;;;-0.53;100.00;101334.56;682976;28;884;-67
2022/12/19 00:12:49;;;;;;;34.78;19.25;;;;;;;-0.54;100.00;101331.88;680976;28;1182;-67
2022/12/19 00:13:10;;;;;;;33.53;20.08;;;;;;;-0.56;100.00;101339.50;684321;28;1175;-69
2022/12/19 00:13:31;;;;;;;32.97;19.43;;;;;;;-0.60;100.00;101329.00;684247;28;1010;-65
2022/12/19 00:13:52;;;;;;;32.15;18.63;;;;;;;-0.59;100.00;101330.78;682598;28;4518;-66
2022/12/19 00:14:13;;;;;;;33.58;18.95;;;;;;;-0.53;100.00;101325.94;682436;28;1195;-66
2022/12/19 00:14:34;;;;;;;34.80;19.67;;;;;;;-0.53;100.00;101326.84;684315;28;1374;-67
2022/12/19 00:14:54;;;;;;;34.58;20.20;;;;;;;-0.53;100.00;101328.50;686356;28;1116;-66
2022/12/19 00:15:15;;;;;;;36.60;20.53;;;;;;;-0.61;100.00;101328.16;685766;28;1323;-67
2022/12/19 00:15:36;;;;;;;36.38;20.20;;;;;;;-0.61;100.00;101322.09;685704;28;1507;-66
2022/12/19 00:16:05;;;;;;;34.95;19.90;;;;;;;-0.59;100.00;101331.66;687834;28;919;-66
2022/12/19 00:16:28;;;;;;;33.48;19.86;;;;;;;-0.57;100.00;101324.03;688431;28;1056;-66
2022/12/19 00:16:49;;;;;;;32.13;19.30;;;;;;;-0.52;100.00;101326.03;688642;28;4376;-66
2022/12/19 00:17:10;;;;;;;35.05;19.40;;;;;;;-0.53;100.00;101331.09;685264;28;1246;-63
2022/12/19 00:17:31;;;;;;;35.35;20.05;;;;;;;-0.54;100.00;101321.59;686573;28;1152;-65
2022/12/19 00:17:52;;;;;;;35.17;20.15;;;;;;;-0.58;100.00;101324.81;687546;28;1348;-66
2022/12/19 00:18:13;;;;;;;35.55;20.38;;;;;;;-0.63;100.00;101324.59;686126;28;3673;-66
2022/12/19 00:18:34;;;;;;;34.17;19.93;;;;;;;-0.59;100.00;101321.38;687261;28;1011;-63
2022/12/19 00:18:57;;;;;;;33.10;19.30;;;;;;;-0.55;100.00;101325.00;687972;28;1342;-66
2022/12/19 00:19:17;;;;;;;34.40;19.25;;;;;;;-0.54;100.00;101324.16;687353;28;1218;-67
2022/12/19 00:19:38;;;;;;;34.60;19.15;;;;;;;-0.57;100.00;101329.16;683733;28;1326;-67
2022/12/19 00:19:59;;;;;;;34.50;19.05;;;;;;;-0.51;100.00;101324.34;684247;28;4412;-66
2022/12/19 00:20:19;;;;;;;33.43;19.00;;;;;;;-0.48;100.00;101326.19;688427;28;1208;-66
2022/12/19 00:20:40;;;;;;;31.93;18.10;;;;;;;-0.46;100.00;101328.00;686569;28;1417;-66
2022/12/19 00:21:03;;;;;;;33.13;18.55;;;;;;;-0.46;100.00;101322.88;687345;28;1339;-66
2022/12/19 00:21:26;;;;;;;32.33;17.98;;;;;;;-0.47;100.00;101321.13;688521;28;936;-66
2022/12/19 00:21:47;;;;;;;34.28;18.17;;;;;;;-0.49;100.00;101320.16;688834;28;1222;-66
2022/12/19 00:22:08;;;;;;;34.10;19.40;;;;;;;-0.53;100.00;101324.28;686725;28;1244;-67
2022/12/19 00:22:28;;;;;;;32.78;19.48;;;;;;;-0.47;100.00;101317.66;688300;28;1286;-67
2022/12/19 00:22:49;;;;;;;35.78;18.98;;;;;;;-0.50;100.00;101315.81;687617;28;4569;-64
2022/12/19 00:23:10;;;;;;;33.78;18.55;;;;;;;-0.45;100.00;101329.78;687340;28;1926;-66
2022/12/19 00:23:32;;;;;;;31.93;18.53;;;;;;;-0.46;100.00;101322.88;687552;28;1292;-67
2022/12/19 00:23:53;;;;;;;34.10;19.83;;;;;;;-0.51;100.00;101321.78;686066;28;1038;-65
2022/12/19 00:24:14;;;;;;;34.33;19.15;;;;;;;-0.53;100.00;101318.25;685963;28;1182;-66
2022/12/19 00:24:34;;;;;;;33.83;18.80;;;;;;;-0.49;100.00;101320.16;685334;28;1270;-67
2022/12/19 00:24:55;;;;;;;35.00;19.07;;;;;;;-0.50;100.00;101320.97;686377;28;1315;-67
2022/12/19 00:25:16;;;;;;;35.88;20.00;;;;;;;-0.49;100.00;101317.59;688157;28;1112;-67
2022/12/19 00:25:36;;;;;;;34.25;19.88;;;;;;;-0.50;100.00;101310.69;689094;28;1229;-64
2022/12/19 00:26:11;;;;;;;34.40;18.70;;;;;;;-0.49;100.00;101315.03;687601;28;4448;-67
2022/12/19 00:26:34;;;;;;;32.67;18.17;;;;;;;-0.44;100.00;101321.28;688315;28;1387;-65
2022/12/19 00:26:56;;;;;;;31.50;18.45;;;;;;;-0.49;100.00;101317.59;687886;28;1217;-66
2022/12/19 00:27:16;;;;;;;31.80;19.07;;;;;;;-0.52;100.00;101323.44;689254;28;1262;-65
2022/12/19 00:27:37;;;;;;;33.20;19.17;;;;;;;-0.46;100.00;101322.88;685868;28;1425;-66
2022/12/19 00:27:58;;;;;;;34.60;19.50;;;;;;;-0.43;100.00;101317.91;683855;28;1362;-64
2022/12/19 00:28:18;;;;;;;33.57;19.57;;;;;;;-0.38;100.00;101320.72;681976;28;1216;-66
2022/12/19 00:28:43;;;;;;;31.70;18.85;;;;;;;-0.35;100.00;101318.28;680530;29;1303;-64
2022/12/19 00:29:06;;;;;;;29.88;17.23;;;;;;;-0.31;100.00;101321.91;680419;29;4299;-66
2022/12/19 00:29:26;;;;;;;34.30;19.00;;;;;;;-0.37;100.00;101314.78;678435;29;1465;-65
2022/12/19 00:29:47;;;;;;;33.83;18.80;;;;;;;-0.41;100.00;101324.00;678004;29;1352;-65
2022/12/19 00:30:10;;;;;;;33.22;19.17;;;;;;;-0.41;100.00;101318.88;682276;28;1105;-67
2022/12/19 00:30:31;;;;;;;32.78;19.42;;;;;;;-0.43;100.00;101320.50;687044;28;1119;-66
2022/12/19 00:30:51;;;;;;;33.08;19.38;;;;;;;-0.44;100.00;101321.28;687210;28;1059;-64
2022/12/19 00:31:14;;;;;;;33.97;19.13;;;;;;;-0.41;100.00;101324.00;682823;28;1250;-66
2022/12/19 00:31:35;;;;;;;34.90;19.33;;;;;;;-0.42;100.00;101321.34;683974;28;932;-67
2022/12/19 00:31:57;;;;;;;33.17;19.77;;;;;;;-0.39;100.00;101321.50;684633;28;4300;-67
2022/12/19 00:32:17;;;;;;;32.92;18.85;;;;;;;-0.36;100.00;101330.25;683134;28;1423;-66
2022/12/19 00:32:38;;;;;;;35.63;19.95;;;;;;;-0.35;100.00;101316.63;683465;28;1051;-66
2022/12/19 00:32:59;;;;;;;34.78;19.17;;;;;;;-0.30;100.00;101310.81;683526;28;1305;-66
2022/12/19 00:33:19;;;;;;;34.80;19.33;;;;;;;-0.39;100.00;101317.28;685797;28;1138;-67
2022/12/19 00:33:41;;;;;;;36.90;18.73;;;;;;;-0.31;100.00;101322.78;686003;28;1166;-65
2022/12/19 00:34:02;;;;;;;35.13;18.48;;;;;;;-0.31;100.00;101322.78;685473;28;1262;-66
2022/12/19 00:34:23;;;;;;;33.28;19.33;;;;;;;-0.38;100.00;101321.56;684685;28;1273;-66
2022/12/19 00:34:43;;;;;;;34.40;20.15;;;;;;;-0.28;100.00;101327.19;686368;28;771;-67
2022/12/19 00:35:04;;;;;;;34.20;19.57;;;;;;;-0.33;100.00;101332.09;683353;28;4640;-66
2022/12/19 00:35:28;;;;;;;35.13;19.38;;;;;;;-0.39;100.00;101327.53;686329;28;1178;-63
2022/12/19 00:35:48;;;;;;;33.30;19.42;;;;;;;-0.32;100.00;101325.28;686428;28;1191;-65
2022/12/19 00:36:14;;;;;;;31.98;17.80;;;;;;;-0.32;100.00;101328.72;682780;28;1299;-65
2022/12/19 00:36:35;;;;;;;33.05;19.13;;;;;;;-0.34;100.00;101327.75;679472;29;1204;-67
2022/12/19 00:36:55;;;;;;;31.95;18.83;;;;;;;-0.31;100.00;101329.59;679644;29;1323;-64
2022/12/19 00:37:16;;;;;;;30.83;17.25;;;;;;;-0.30;100.00;101326.25;678129;29;1301;-64
2022/12/19 00:37:37;;;;;;;32.90;17.92;;;;;;;-0.29;100.00;101320.28;680536;29;1035;-65
2022/12/19 00:37:57;;;;;;;35.13;18.57;;;;;;;-0.25;100.00;101324.75;678693;29;4458;-66
2022/12/19 00:38:18;;;;;;;31.17;17.58;;;;;;;-0.28;100.00;101319.47;679741;28;944;-65
2022/12/19 00:38:39;;;;;;;31.50;17.73;;;;;;;-0.26;100.00;101320.47;682901;28;1226;-66
2022/12/19 00:39:02;;;;;;;28.60;16.38;;;;;;;-0.21;100.00;101318.97;681838;28;1078;-63
2022/12/19 00:39:23;;;;;;;26.63;15.95;;;;;;;-0.26;100.00;101318.75;679691;28;3505;-65
2022/12/19 00:39:43;;;;;;;31.17;17.65;;;;;;;-0.29;100.00;101316.03;680000;28;2593;-66
2022/12/19 00:40:07;;;;;;;33.75;18.77;;;;;;;-0.29;100.00;101320.28;684082;28;1259;-66
2022/12/19 00:40:31;;;;;;;35.92;18.77;;;;;;;-0.25;100.00;101319.63;687512;28;1400;-64
2022/12/19 00:40:53;;;;;;;31.63;16.73;;;;;;;-0.22;100.00;101320.66;685063;28;4590;-65
2022/12/19 00:41:16;;;;;;;31.23;17.85;;;;;;;-0.30;100.00;101321.09;685171;28;1315;-66
2022/12/19 00:41:38;;;;;;;33.58;18.60;;;;;;;-0.23;100.00;101325.75;684733;28;1308;-66
2022/12/19 00:41:59;;;;;;;35.25;19.20;;;;;;;-0.27;100.00;101316.13;684616;28;1219;-66
2022/12/19 00:42:20;;;;;;;32.15;18.77;;;;;;;-0.24;100.00;101308.56;687737;28;1293;-66
2022/12/19 00:42:42;;;;;;;34.40;18.98;;;;;;;-0.23;100.00;101318.91;684800;28;1276;-66
2022/12/19 00:43:03;;;;;;;32.72;18.70;;;;;;;-0.28;100.00;101319.47;688017;28;1488;-67
2022/12/19 00:43:23;;;;;;;35.05;19.30;;;;;;;-0.32;100.00;101320.13;689209;28;1194;-66
2022/12/19 00:43:45;;;;;;;36.20;19.83;;;;;;;-0.38;100.00;101315.56;684556;28;1001;-66
2022/12/19 00:44:08;;;;;;;32.65;18.70;;;;;;;-0.39;100.00;101319.84;684430;28;4451;-66
2022/12/19 00:44:29;;;;;;;35.17;20.05;;;;;;;-0.36;100.00;101313.94;686464;28;1393;-66
2022/12/19 00:44:50;;;;;;;34.33;19.98;;;;;;;-0.32;100.00;101323.56;686225;28;1227;-67
2022/12/19 00:45:10;;;;;;;33.20;18.75;;;;;;;-0.30;100.00;101315.97;688376;28;1366;-65
2022/12/19 00:45:31;;;;;;;34.90;19.80;;;;;;;-0.24;100.00;101314.56;688566;28;1246;-66
2022/12/19 00:45:52;;;;;;;33.90;20.00;;;;;;;-0.19;100.00;101317.38;687928;28;1304;-64
2022/12/19 00:46:14;;;;;;;35.10;20.27;;;;;;;-0.22;100.00;101309.53;688139;28;1257;-65
2022/12/19 00:46:35;;;;;;;35.15;20.00;;;;;;;-0.20;100.00;101313.03;687757;28;1415;-65
2022/12/19 00:46:56;;;;;;;32.88;19.08;;;;;;;-0.26;100.00;101310.19;686766;28;4305;-64
2022/12/19 00:47:16;;;;;;;33.42;18.98;;;;;;;-0.30;100.00;101305.69;687434;28;1328;-64
2022/12/19 00:47:37;;;;;;;33.13;19.70;;;;;;;-0.29;100.00;101305.75;687568;28;1363;-65
2022/12/19 00:47:58;;;;;;;34.70;19.95;;;;;;;-0.25;100.00;101301.63;684562;28;1487;-65
2022/12/19 00:48:19;;;;;;;34.60;18.83;;;;;;;-0.28;100.00;101296.34;684629;28;5163;-67
2022/12/19 00:48:41;;;;;;;34.63;19.98;;;;;;;-0.32;100.00;101307.28;686423;28;1349;-65
2022/12/19 00:49:03;;;;;;;35.38;20.08;;;;;;;-0.35;100.00;101298.63;683435;28;1301;-66
2022/12/19 00:49:24;;;;;;;35.47;19.98;;;;;;;-0.31;100.00;101294.50;684039;28;1302;-65
2022/12/19 00:49:45;;;;;;;36.70;20.13;;;;;;;-0.34;100.00;101302.06;685524;28;1429;-66
2022/12/19 00:50:06;;;;;;;37.25;20.13;;;;;;;-0.33;100.00;101302.94;683523;28;4540;-66
2022/12/19 00:50:26;;;;;;;33.00;19.27;;;;;;;-0.35;100.00;101292.59;681717;28;1386;-66
2022/12/19 00:50:47;;;;;;;33.92;19.98;;;;;;;-0.31;100.00;101296.22;682109;29;1213;-65
2022/12/19 00:51:12;;;;;;;34.60;19.07;;;;;;;-0.31;100.00;101296.22;683985;28;1308;-66
2022/12/19 00:51:36;;;;;;;32.63;19.35;;;;;;;-0.37;100.00;101297.66;679745;29;1391;-65
2022/12/19 00:51:58;;;;;;;33.17;19.45;;;;;;;-0.30;100.00;101298.84;679061;28;1339;-67
2022/12/19 00:52:19;;;;;;;33.72;19.42;;;;;;;-0.26;100.00;101289.63;682423;28;1474;-66
2022/12/19 00:52:40;;;;;;;33.92;18.65;;;;;;;-0.18;100.00;101294.31;682878;28;1413;-66
2022/12/19 00:53:00;;;;;;;33.50;18.08;;;;;;;-0.19;100.00;101289.97;681715;28;4497;-66
2022/12/19 00:53:21;;;;;;;32.53;18.67;;;;;;;-0.19;100.00;101294.25;683680;28;1470;-65
2022/12/19 00:53:43;;;;;;;31.45;18.33;;;;;;;-0.22;100.00;101292.41;680216;28;1464;-66
2022/12/19 00:54:04;;;;;;;32.30;18.80;;;;;;;-0.28;100.00;101288.66;682436;28;1213;-66
2022/12/19 00:54:25;;;;;;;32.75;18.58;;;;;;;-0.23;100.00;101289.75;679677;29;1407;-65
2022/12/19 00:54:46;;;;;;;31.20;17.75;;;;;;;-0.23;100.00;101284.63;679787;29;1323;-64
2022/12/19 00:55:07;;;;;;;32.22;18.48;;;;;;;-0.20;100.00;101289.91;680360;29;1077;-66
2022/12/19 00:55:28;;;;;;;31.02;18.38;;;;;;;-0.17;100.00;101279.78;679724;29;1354;-66
2022/12/19 00:55:49;;;;;;;32.47;19.63;;;;;;;-0.12;100.00;101282.59;678384;28;4512;-67
2022/12/19 00:56:12;;;;;;;33.13;18.93;;;;;;;-0.10;100.00;101276.69;679121;29;1168;-66
2022/12/19 00:56:34;;;;;;;32.60;17.90;;;;;;;-0.13;100.00;101273.97;681621;28;1386;-66
2022/12/19 00:56:55;;;;;;;30.55;18.05;;;;;;;-0.05;100.00;101270.09;684457;28;1308;-66
2022/12/19 00:57:16;;;;;;;31.80;18.83;;;;;;;-0.02;100.00;101267.66;682374;28;1383;-66
2022/12/19 00:57:37;;;;;;;33.00;18.87;;;;;;;-0.07;100.00;101265.66;681670;28;1417;-65
2022/12/19 00:57:58;;;;;;;33.88;19.10;;;;;;;-0.11;100.00;101259.53;681253;28;1387;-65
2022/12/19 00:58:18;;;;;;;32.65;18.45;;;;;;;-0.08;100.00;101272.50;681426;28;1553;-66
2022/12/19 00:58:39;;;;;;;32.73;18.87;;;;;;;-0.14;100.00;101268.75;679812;29;1535;-66
2022/12/19 00:59:01;;;;;;;33.58;19.27;;;;;;;-0.14;100.00;101269.63;684783;28;4403;-65
2022/12/19 00:59:22;;;;;;;34.30;18.87;;;;;;;-0.16;100.00;101276.41;684068;28;1394;-66
2022/12/19 00:59:42;;;;;;;33.38;19.17;;;;;;;-0.11;100.00;101274.03;685259;28;1184;-66
2022/12/19 01:00:03;;;;;;;34.22;19.50;;;;;;;-0.13;100.00;101276.53;684876;28;1156;-66
2022/12/19 01:00:24;;;;;;;33.75;18.73;;;;;;;-0.10;100.00;101270.66;685890;28;1403;-66
2022/12/19 01:00:45;;;;;;;33.58;19.38;;;;;;;-0.08;100.00;101275.09;683599;28;1354;-67
2022/12/19 01:01:08;;;;;;;32.08;19.02;;;;;;;-0.11;100.00;101274.94;685537;28;1283;-66
2022/12/19 01:01:36;;;;;;;31.95;19.50;;;;;;;-0.17;100.00;101287.47;685415;28;1281;-66
2022/12/19 01:01:56;;;;;;;31.38;18.45;;;;;;;-0.15;100.00;101303.88;683454;28;4405;-66
2022/12/19 01:02:17;;;;;;;31.90;18.93;;;;;;;-0.19;100.00;101297.69;686815;28;1349;-65
2022/12/19 01:02:38;;;;;;;34.72;19.35;;;;;;;-0.19;100.00;101304.53;687814;28;1285;-65
2022/12/19 01:02:58;;;;;;;35.92;19.75;;;;;;;-0.22;100.00;101305.25;687585;28;1294;-65
2022/12/19 01:03:19;;;;;;;34.03;19.50;;;;;;;-0.23;100.00;101305.19;688026;28;1962;-65
2022/12/19 01:03:40;;;;;;;31.13;18.60;;;;;;;-0.22;100.00;101304.38;687922;28;1576;-64
2022/12/19 01:04:03;;;;;;;30.40;17.25;;;;;;;-0.10;100.00;101319.50;687754;28;1488;-66
2022/12/19 01:04:23;;;;;;;31.50;17.77;;;;;;;-0.10;100.00;101322.06;688574;28;1392;-65
2022/12/19 01:04:45;;;;;;;33.33;19.58;;;;;;;-0.14;100.00;101321.03;684889;28;3633;-66
2022/12/19 01:05:06;;;;;;;34.10;19.80;;;;;;;-0.17;100.00;101331.16;681844;28;5116;-66
2022/12/19 01:05:27;;;;;;;32.65;19.80;;;;;;;-0.16;100.00;101325.22;680715;28;2229;-66
2022/12/19 01:05:49;;;;;;;32.43;18.97;;;;;;;-0.19;100.00;101325.09;682029;28;1337;-66
2022/12/19 01:06:10;;;;;;;33.63;19.17;;;;;;;-0.20;100.00;101320.75;679392;29;1475;-66
2022/12/19 01:06:31;;;;;;;33.03;19.27;;;;;;;-0.22;100.00;101322.38;679113;29;1408;-67
2022/12/19 01:06:51;;;;;;;33.92;19.95;;;;;;;-0.25;100.00;101317.06;680391;29;1323;-66
2022/12/19 01:07:12;;;;;;;33.00;19.50;;;;;;;-0.29;100.00;101315.13;684261;28;1227;-66
2022/12/19 01:07:33;;;;;;;32.90;19.02;;;;;;;-0.24;100.00;101318.81;683912;28;1237;-67
2022/12/19 01:07:54;;;;;;;35.97;20.30;;;;;;;-0.19;100.00;101319.94;683591;28;4466;-66
2022/12/19 01:08:18;;;;;;;34.20;18.50;;;;;;;-0.11;100.00;101323.78;683440;28;1181;-66
2022/12/19 01:08:38;;;;;;;33.22;18.38;;;;;;;-0.08;100.00;101315.34;687968;28;1688;-66
2022/12/19 01:08:59;;;;;;;34.35;18.48;;;;;;;0.01;100.00;101314.91;688079;28;1524;-64
2022/12/19 01:09:21;;;;;;;32.58;17.30;;;;;;;0.03;100.00;101311.59;686627;28;1730;-66
2022/12/19 01:09:43;;;;;;;34.15;19.85;;;;;;;-0.07;100.00;101302.56;687978;28;1319;-65
2022/12/19 01:10:04;;;;;;;33.90;19.10;;;;;;;-0.08;100.00;101311.06;685740;28;1191;-65
2022/12/19 01:10:25;;;;;;;33.53;18.70;;;;;;;-0.01;100.00;101313.13;684638;28;1535;-65
2022/12/19 01:10:47;;;;;;;32.07;17.70;;;;;;;0.03;100.00;101305.56;685012;28;1148;-67
2022/12/19 01:11:08;;;;;;;34.30;19.75;;;;;;;0.01;100.00;101309.75;685892;28;6222;-66
2022/12/19 01:12:49;;;;;;;33.22;20.23;;;;;;;-0.12;100.00;101313.44;683023;28;1420;-66
2022/12/19 01:13:09;;;;;;;34.33;19.88;;;;;;;-0.09;100.00;101318.72;684691;28;1300;-66
2022/12/19 01:13:31;;;;;;;33.03;19.35;;;;;;;-0.07;100.00;101317.09;687736;28;1394;-66
2022/12/19 01:13:52;;;;;;;31.88;19.77;;;;;;;-0.08;100.00;101316.22;685509;28;4526;-66
2022/12/19 01:14:13;;;;;;;31.83;18.90;;;;;;;-0.14;100.00;101331.31;684624;28;1324;-67
2022/12/19 01:14:34;;;;;;;32.63;18.67;;;;;;;-0.09;100.00;101319.56;681258;28;3514;-67
2022/12/19 01:14:56;;;;;;;33.55;20.00;;;;;;;-0.10;100.00;101311.78;682434;28;1300;-67
2022/12/19 01:15:19;;;;;;;32.80;19.10;;;;;;;-0.09;100.00;101316.13;683023;28;1438;-66
2022/12/19 01:15:40;;;;;;;31.85;18.75;;;;;;;-0.04;100.00;101306.97;683200;28;1315;-66
2022/12/19 01:16:06;;;;;;;33.95;20.23;;;;;;;-0.06;100.00;101316.28;683088;28;1557;-66
2022/12/19 01:16:27;;;;;;;33.42;19.10;;;;;;;-0.06;100.00;101313.72;688433;28;2259;-67
2022/12/19 01:16:48;;;;;;;32.45;18.05;;;;;;;-0.02;100.00;101313.06;690168;28;4398;-65
2022/12/19 01:17:08;;;;;;;34.03;18.23;;;;;;;-0.01;100.00;101314.81;686254;28;2061;-66
2022/12/19 01:17:29;;;;;;;36.40;20.13;;;;;;;-0.03;100.00;101311.28;687442;28;1588;-66
2022/12/19 01:17:50;;;;;;;35.53;20.00;;;;;;;0.00;100.00;101311.47;683057;28;3414;-66
2022/12/19 01:18:12;;;;;;;32.22;19.00;;;;;;;0.01;100.00;101308.06;679389;28;2426;-66
2022/12/19 01:18:33;;;;;;;34.20;19.48;;;;;;;0.01;100.00;101314.91;679103;29;1307;-66
2022/12/19 01:18:53;;;;;;;31.30;18.77;;;;;;;-0.01;100.00;101307.13;679943;28;1237;-66
2022/12/19 01:19:14;;;;;;;30.90;18.50;;;;;;;0.02;100.00;101311.53;682213;28;1241;-67
2022/12/19 01:19:35;;;;;;;31.77;18.73;;;;;;;-0.04;100.00;101318.13;683753;28;1228;-66
2022/12/19 01:19:55;;;;;;;32.05;19.33;;;;;;;-0.05;100.00;101310.34;681257;28;4544;-67
2022/12/19 01:20:18;;;;;;;33.70;19.65;;;;;;;-0.08;100.00;101305.94;679279;28;1514;-66
2022/12/19 01:20:44;;;;;;;33.03;19.45;;;;;;;-0.09;100.00;101309.28;684938;28;1402;-66
2022/12/19 01:21:08;;;;;;;31.02;18.13;;;;;;;-0.04;100.00;101306.97;682119;28;1564;-65
2022/12/19 01:21:28;;;;;;;30.13;18.20;;;;;;;-0.09;100.00;101304.16;682654;28;1394;-67
2022/12/19 01:21:48;;;;;;;32.92;19.70;;;;;;;-0.11;100.00;101298.06;684201;28;1323;-66
2022/12/19 01:22:09;;;;;;;32.58;18.70;;;;;;;-0.09;100.00;101301.59;686835;28;1198;-66
2022/12/19 01:22:30;;;;;;;32.13;18.90;;;;;;;-0.12;100.00;101291.16;688343;28;1326;-66
2022/12/19 01:22:50;;;;;;;32.75;19.55;;;;;;;-0.09;100.00;101298.16;684789;28;4316;-66
2022/12/19 01:23:11;;;;;;;34.27;19.60;;;;;;;-0.11;100.00;101294.59;683814;28;1919;-66
2022/12/19 01:23:31;;;;;;;34.87;19.77;;;;;;;-0.08;100.00;101290.50;684416;28;1558;-68
2022/12/19 01:23:52;;;;;;;33.58;19.85;;;;;;;-0.05;100.00;101285.50;683787;28;1375;-66
2022/12/19 01:24:12;;;;;;;34.13;19.37;;;;;;;0.03;100.00;101283.31;683916;28;1238;-66
2022/12/19 01:24:32;;;;;;;32.88;18.95;;;;;;;0.04;100.00;101285.06;681805;28;1498;-66
2022/12/19 01:24:53;;;;;;;32.93;19.37;;;;;;;-0.02;100.00;101280.50;682133;28;1217;-66
2022/12/19 01:25:14;;;;;;;33.03;19.20;;;;;;;0.02;100.00;101278.97;683617;28;1184;-66
2022/12/19 01:25:35;;;;;;;32.50;18.93;;;;;;;0.07;100.00;101284.31;681713;28;1548;-64
2022/12/19 01:25:56;;;;;;;32.15;17.23;;;;;;;0.02;100.00;101289.25;682527;28;4318;-67
2022/12/19 01:26:17;;;;;;;32.40;17.43;;;;;;;0.01;100.00;101284.03;686585;28;1326;-66
2022/12/19 01:26:37;;;;;;;32.17;18.85;;;;;;;-0.06;100.00;101283.72;687970;28;1317;-66
2022/12/19 01:26:58;;;;;;;32.47;19.17;;;;;;;0.01;100.00;101278.91;687382;28;1404;-66
2022/12/19 01:27:18;;;;;;;32.13;18.83;;;;;;;-0.01;100.00;101282.28;687731;28;1748;-66
2022/12/19 01:27:39;;;;;;;34.77;19.73;;;;;;;-0.05;100.00;101275.22;687638;28;1385;-67
2022/12/19 01:27:59;;;;;;;35.15;19.52;;;;;;;-0.06;100.00;101268.31;684963;28;1297;-66
2022/12/19 01:28:20;;;;;;;32.60;19.70;;;;;;;-0.04;100.00;101276.13;688061;28;1745;-67
2022/12/19 01:28:41;;;;;;;32.22;19.05;;;;;;;-0.08;100.00;101264.81;686404;28;1904;-66
2022/12/19 01:29:01;;;;;;;32.77;18.53;;;;;;;-0.05;100.00;101267.50;685758;28;4323;-67
2022/12/19 01:29:22;;;;;;;35.08;19.90;;;;;;;-0.11;100.00;101274.94;682913;28;2018;-66
2022/12/19 01:29:42;;;;;;;35.43;20.10;;;;;;;-0.02;100.00;101266.78;683925;28;1587;-66
2022/12/19 01:30:05;;;;;;;33.13;18.88;;;;;;;-0.03;100.00;101273.63;680434;28;1299;-67
2022/12/19 01:30:26;;;;;;;33.15;19.40;;;;;;;0.00;100.00;101257.47;680560;29;1331;-66
2022/12/19 01:30:46;;;;;;;33.95;18.67;;;;;;;-0.01;100.00;101261.72;677803;29;1252;-66
2022/12/19 01:31:07;;;;;;;34.23;19.70;;;;;;;-0.02;100.00;101259.06;682318;28;1366;-67
2022/12/19 01:31:28;;;;;;;36.10;20.73;;;;;;;-0.03;100.00;101253.06;680542;29;1532;-67
2022/12/19 01:31:49;;;;;;;36.03;21.10;;;;;;;-0.04;100.00;101253.88;679484;29;4432;-68
2022/12/19 01:32:09;;;;;;;34.40;20.40;;;;;;;-0.07;100.00;101256.28;680182;28;1211;-68
2022/12/19 01:32:29;;;;;;;34.43;20.27;;;;;;;-0.09;100.00;101252.75;683142;28;1392;-66
2022/12/19 01:32:52;;;;;;;35.80;20.30;;;;;;;-0.16;100.00;101253.28;686000;28;1733;-67
2022/12/19 01:33:15;;;;;;;35.15;20.30;;;;;;;-0.21;100.00;101258.19;682900;28;1502;-67
2022/12/19 01:33:35;;;;;;;34.92;20.05;;;;;;;-0.22;100.00;101255.56;685136;28;1561;-67
2022/12/19 01:33:58;;;;;;;33.65;19.70;;;;;;;-0.16;100.00;101252.41;684964;28;1394;-67
2022/12/19 01:34:18;;;;;;;33.65;19.13;;;;;;;-0.11;100.00;101250.91;685379;28;1381;-66
2022/12/19 01:34:39;;;;;;;35.23;20.03;;;;;;;-0.10;100.00;101248.41;686765;28;1606;-67
2022/12/19 01:34:59;;;;;;;32.88;18.83;;;;;;;-0.04;100.00;101247.84;686461;28;4386;-66
2022/12/19 01:35:20;;;;;;;34.67;18.43;;;;;;;-0.10;100.00;101256.13;686748;28;1323;-68
2022/12/19 01:35:42;;;;;;;37.13;20.45;;;;;;;-0.13;100.00;101248.28;687704;28;1520;-67
2022/12/19 01:36:06;;;;;;;36.15;20.17;;;;;;;-0.10;100.00;101245.84;683638;28;1304;-65
2022/12/19 01:36:27;;;;;;;35.60;20.05;;;;;;;-0.13;100.00;101244.84;683752;28;1528;-66
2022/12/19 01:36:48;;;;;;;34.00;19.95;;;;;;;-0.16;100.00;101245.56;679757;29;1382;-67
2022/12/19 01:37:08;;;;;;;34.67;19.93;;;;;;;-0.11;100.00;101248.34;680561;29;1156;-67
2022/12/19 01:37:29;;;;;;;35.80;19.83;;;;;;;-0.13;100.00;101240.56;679956;29;1612;-67
2022/12/19 01:37:54;;;;;;;32.88;19.63;;;;;;;-0.07;100.00;101252.81;680025;28;5419;-68
2022/12/19 01:38:19;;;;;;;32.90;19.15;;;;;;;-0.01;100.00;101253.13;681596;28;1355;-68
2022/12/19 01:38:40;;;;;;;33.75;20.00;;;;;;;-0.06;100.00;101252.03;684053;28;1719;-68
2022/12/19 01:39:01;;;;;;;35.95;20.65;;;;;;;-0.11;100.00;101249.25;681981;28;1647;-69
2022/12/19 01:39:21;;;;;;;35.50;20.37;;;;;;;-0.14;100.00;101243.06;682412;28;1385;-67
2022/12/19 01:39:41;;;;;;;35.38;20.63;;;;;;;-0.10;100.00;101244.97;683187;28;1873;-68
2022/12/19 01:40:03;;;;;;;36.50;20.40;;;;;;;-0.11;100.00;101250.91;686100;28;1391;-68